Dubbo Airport
YSDU : now visible

Airfield :











YOU CAN JOIN US ON...

 
LOGIN :

Register | Disclaimer

   EN    FR    IT 

 









Legend :    VFR   Marginal VFR   IFR   Intensive IFR   Very Intensive IFR
Visi :
Ceiling :
>= 8 km
>= 3000ft
5 to 8 km
1000 to 3000 ft
1500m to 5 km
500 to 1000 ft
800 to 1500m
200 to 500 ft
< 800m
< 200 ft
Symbols :   Thunderstorms  Fog  Heavy snow  Heavy precipitations  Wind > 20 kt






- Airport Elevation : 935 ft
- IATA code : DBO


YSDU - Dubbo

CURRENT METAR :
  • 042100Z AUTO 00000KT 9999 // NCD 13/09 Q1010 RF00.0/000.0

EXPIRED METARs :
  • 042030Z AUTO 00000KT 9999 // NCD 11/08 Q1010 RF00.0/000.0
  • 042000Z AUTO 00000KT 9999 // NCD 10/06 Q1010 RF00.0/000.0
  • 041930Z AUTO 23004KT 090V250 9999 // NCD 10/07 Q1009 RF00.0/000.0
  • 041900Z AUTO 00000KT 9999 // NCD 11/07 Q1009
  • 041830Z AUTO 00000KT 9999 // NCD 11/07 Q1009 RF00.0/000.0

TAF TAF YSDU
Valid from the 04 at 18:00 until the 05 at 12:00 UTC


041704Z 0418/0512 20008KT CAVOK
FM050000 22013KT CAVOK
FM050800 18008KT CAVOK
YMMM FIR / Oceania



MET'MAP, your aeronautical weather chart ! - Copyright ORBIFLY December 2007 - Disclaimer

ORBIFLY MET'MAP TEAM :

Programming & Development : Alexandra Zaïnal
Concept & original design : Baudouin d'Aumeries
Assistance for programming : Marc-Olivier Méhu
Technical & hardware support : Manuel Goepfert

Contact : metmap@orbifly.com




SOURCES & CREDITS :

   NOAA       Earth
Advisory